sensor_id;sensor_type;location;lat;lon;timestamp;P1;durP1;ratioP1;P2;durP2;ratioP2
419;SDS011;42600;54.408;13.016;2023-07-29T00:01:54;6.57;;;2.47;;
419;SDS011;42600;54.408;13.016;2023-07-29T00:04:20;8.93;;;3.33;;
419;SDS011;42600;54.408;13.016;2023-07-29T00:06:47;6.57;;;3.13;;
419;SDS011;42600;54.408;13.016;2023-07-29T00:09:13;8.35;;;3.80;;
419;SDS011;42600;54.408;13.016;2023-07-29T00:11:40;9.57;;;4.13;;
419;SDS011;42600;54.408;13.016;2023-07-29T00:14:07;7.50;;;4.60;;
419;SDS011;42600;54.408;13.016;2023-07-29T00:16:34;8.30;;;4.10;;
419;SDS011;42600;54.408;13.016;2023-07-29T00:19:02;5.17;;;2.53;;
419;SDS011;42600;54.408;13.016;2023-07-29T00:21:29;9.57;;;4.83;;
419;SDS011;42600;54.408;13.016;2023-07-29T00:23:55;6.43;;;3.77;;
419;SDS011;42600;54.408;13.016;2023-07-29T00:26:22;7.63;;;3.50;;
419;SDS011;42600;54.408;13.016;2023-07-29T00:28:51;8.40;;;3.73;;
419;SDS011;42600;54.408;13.016;2023-07-29T00:31:17;5.43;;;3.00;;
419;SDS011;42600;54.408;13.016;2023-07-29T00:33:45;8.13;;;2.45;;
419;SDS011;42600;54.408;13.016;2023-07-29T00:36:12;7.90;;;3.80;;
419;SDS011;42600;54.408;13.016;2023-07-29T00:38:38;11.63;;;4.95;;
419;SDS011;42600;54.408;13.016;2023-07-29T00:41:05;7.27;;;4.33;;
419;SDS011;42600;54.408;13.016;2023-07-29T00:43:32;9.30;;;4.13;;
419;SDS011;42600;54.408;13.016;2023-07-29T00:45:59;8.50;;;3.70;;
419;SDS011;42600;54.408;13.016;2023-07-29T00:48:26;10.13;;;4.93;;
419;SDS011;42600;54.408;13.016;2023-07-29T00:50:54;7.50;;;3.70;;
419;SDS011;42600;54.408;13.016;2023-07-29T00:53:21;6.80;;;4.03;;
419;SDS011;42600;54.408;13.016;2023-07-29T00:55:48;11.80;;;4.00;;
419;SDS011;42600;54.408;13.016;2023-07-29T00:58:14;6.70;;;4.00;;
419;SDS011;42600;54.408;13.016;2023-07-29T01:00:41;6.40;;;3.83;;
419;SDS011;42600;54.408;13.016;2023-07-29T01:03:08;9.93;;;4.57;;
419;SDS011;42600;54.408;13.016;2023-07-29T01:05:36;8.43;;;4.50;;
419;SDS011;42600;54.408;13.016;2023-07-29T01:08:11;11.10;;;4.73;;
419;SDS011;42600;54.408;13.016;2023-07-29T01:10:46;10.07;;;4.87;;
419;SDS011;42600;54.408;13.016;2023-07-29T01:13:22;10.53;;;4.93;;
419;SDS011;42600;54.408;13.016;2023-07-29T01:15:54;7.37;;;4.00;;
419;SDS011;42600;54.408;13.016;2023-07-29T01:18:23;8.65;;;3.72;;
419;SDS011;42600;54.408;13.016;2023-07-29T01:20:53;15.30;;;4.10;;
419;SDS011;42600;54.408;13.016;2023-07-29T01:23:25;9.97;;;3.33;;
419;SDS011;42600;54.408;13.016;2023-07-29T01:25:52;5.93;;;3.30;;
419;SDS011;42600;54.408;13.016;2023-07-29T01:28:18;11.00;;;4.23;;
419;SDS011;42600;54.408;13.016;2023-07-29T01:30:45;9.10;;;3.33;;
419;SDS011;42600;54.408;13.016;2023-07-29T01:33:20;3.40;;;2.60;;
419;SDS011;42600;54.408;13.016;2023-07-29T01:35:52;5.20;;;2.83;;
419;SDS011;42600;54.408;13.016;2023-07-29T01:38:24;6.20;;;2.93;;
419;SDS011;42600;54.408;13.016;2023-07-29T01:40:58;3.37;;;2.17;;
419;SDS011;42600;54.408;13.016;2023-07-29T01:43:27;7.17;;;3.20;;
419;SDS011;42600;54.408;13.016;2023-07-29T01:45:54;5.37;;;2.97;;
419;SDS011;42600;54.408;13.016;2023-07-29T01:48:22;6.87;;;2.33;;
419;SDS011;42600;54.408;13.016;2023-07-29T01:50:48;7.20;;;2.57;;
419;SDS011;42600;54.408;13.016;2023-07-29T01:53:15;8.10;;;3.73;;
419;SDS011;42600;54.408;13.016;2023-07-29T01:55:43;5.93;;;2.67;;
419;SDS011;42600;54.408;13.016;2023-07-29T01:58:10;6.63;;;2.20;;
419;SDS011;42600;54.408;13.016;2023-07-29T02:00:37;11.73;;;3.47;;
419;SDS011;42600;54.408;13.016;2023-07-29T02:03:04;3.67;;;2.20;;
419;SDS011;42600;54.408;13.016;2023-07-29T02:05:31;5.27;;;2.17;;
419;SDS011;42600;54.408;13.016;2023-07-29T02:07:58;4.03;;;2.33;;
419;SDS011;42600;54.408;13.016;2023-07-29T02:10:24;6.40;;;2.80;;
419;SDS011;42600;54.408;13.016;2023-07-29T02:12:52;3.77;;;2.80;;
419;SDS011;42600;54.408;13.016;2023-07-29T02:15:19;2.53;;;1.97;;
419;SDS011;42600;54.408;13.016;2023-07-29T02:17:45;3.33;;;1.80;;
419;SDS011;42600;54.408;13.016;2023-07-29T02:20:12;5.00;;;2.63;;
419;SDS011;42600;54.408;13.016;2023-07-29T02:22:38;6.57;;;2.73;;
419;SDS011;42600;54.408;13.016;2023-07-29T02:25:05;2.50;;;1.33;;
419;SDS011;42600;54.408;13.016;2023-07-29T02:27:32;5.27;;;2.10;;
419;SDS011;42600;54.408;13.016;2023-07-29T02:30:00;4.13;;;1.70;;
419;SDS011;42600;54.408;13.016;2023-07-29T02:32:27;5.47;;;2.63;;
419;SDS011;42600;54.408;13.016;2023-07-29T02:34:54;3.67;;;1.87;;
419;SDS011;42600;54.408;13.016;2023-07-29T02:37:20;6.10;;;3.37;;
419;SDS011;42600;54.408;13.016;2023-07-29T02:39:47;6.30;;;2.30;;
419;SDS011;42600;54.408;13.016;2023-07-29T02:42:13;3.90;;;2.80;;
419;SDS011;42600;54.408;13.016;2023-07-29T02:44:40;5.73;;;2.70;;
419;SDS011;42600;54.408;13.016;2023-07-29T02:47:08;5.90;;;2.45;;
419;SDS011;42600;54.408;13.016;2023-07-29T02:49:34;4.60;;;2.55;;
419;SDS011;42600;54.408;13.016;2023-07-29T02:52:01;6.15;;;3.13;;
419;SDS011;42600;54.408;13.016;2023-07-29T02:54:28;2.70;;;1.73;;
419;SDS011;42600;54.408;13.016;2023-07-29T02:56:54;2.57;;;1.70;;
419;SDS011;42600;54.408;13.016;2023-07-29T02:59:21;4.13;;;2.97;;
419;SDS011;42600;54.408;13.016;2023-07-29T03:01:47;7.60;;;3.50;;
419;SDS011;42600;54.408;13.016;2023-07-29T03:04:15;6.30;;;3.13;;
419;SDS011;42600;54.408;13.016;2023-07-29T03:06:42;4.27;;;2.87;;
419;SDS011;42600;54.408;13.016;2023-07-29T03:09:08;6.83;;;3.10;;
419;SDS011;42600;54.408;13.016;2023-07-29T03:11:35;4.50;;;2.73;;
419;SDS011;42600;54.408;13.016;2023-07-29T03:14:02;4.60;;;2.33;;
419;SDS011;42600;54.408;13.016;2023-07-29T03:16:28;4.43;;;2.30;;
419;SDS011;42600;54.408;13.016;2023-07-29T03:18:55;4.33;;;2.23;;
419;SDS011;42600;54.408;13.016;2023-07-29T03:21:23;3.17;;;2.20;;
419;SDS011;42600;54.408;13.016;2023-07-29T03:23:50;5.97;;;2.53;;
419;SDS011;42600;54.408;13.016;2023-07-29T03:26:17;3.27;;;1.57;;
419;SDS011;42600;54.408;13.016;2023-07-29T03:28:43;6.78;;;1.85;;
419;SDS011;42600;54.408;13.016;2023-07-29T03:31:10;4.40;;;3.00;;
419;SDS011;42600;54.408;13.016;2023-07-29T03:33:37;6.47;;;2.70;;
419;SDS011;42600;54.408;13.016;2023-07-29T03:36:04;4.50;;;1.57;;
419;SDS011;42600;54.408;13.016;2023-07-29T03:38:32;3.47;;;2.10;;
419;SDS011;42600;54.408;13.016;2023-07-29T03:41:00;4.88;;;2.20;;
419;SDS011;42600;54.408;13.016;2023-07-29T03:43:27;3.27;;;2.40;;
419;SDS011;42600;54.408;13.016;2023-07-29T03:45:54;5.30;;;2.60;;
419;SDS011;42600;54.408;13.016;2023-07-29T03:48:21;3.03;;;2.05;;
419;SDS011;42600;54.408;13.016;2023-07-29T03:50:47;6.20;;;2.70;;
419;SDS011;42600;54.408;13.016;2023-07-29T03:53:14;5.10;;;2.77;;
419;SDS011;42600;54.408;13.016;2023-07-29T03:55:41;6.65;;;2.67;;
419;SDS011;42600;54.408;13.016;2023-07-29T03:58:08;7.63;;;3.00;;
419;SDS011;42600;54.408;13.016;2023-07-29T04:00:35;5.07;;;2.10;;
419;SDS011;42600;54.408;13.016;2023-07-29T04:03:01;5.10;;;2.53;;
419;SDS011;42600;54.408;13.016;2023-07-29T04:05:28;5.77;;;2.60;;
419;SDS011;42600;54.408;13.016;2023-07-29T04:07:54;6.90;;;1.90;;
419;SDS011;42600;54.408;13.016;2023-07-29T04:10:21;9.20;;;3.00;;
419;SDS011;42600;54.408;13.016;2023-07-29T04:12:49;2.83;;;1.27;;
419;SDS011;42600;54.408;13.016;2023-07-29T04:15:16;8.77;;;2.30;;
419;SDS011;42600;54.408;13.016;2023-07-29T04:17:42;6.63;;;2.20;;
419;SDS011;42600;54.408;13.016;2023-07-29T04:20:09;5.13;;;2.60;;
419;SDS011;42600;54.408;13.016;2023-07-29T04:22:36;9.30;;;2.30;;
419;SDS011;42600;54.408;13.016;2023-07-29T04:25:03;2.50;;;1.20;;
419;SDS011;42600;54.408;13.016;2023-07-29T04:27:31;7.63;;;2.47;;
419;SDS011;42600;54.408;13.016;2023-07-29T04:29:59;2.90;;;1.80;;
419;SDS011;42600;54.408;13.016;2023-07-29T04:32:25;10.40;;;2.95;;
419;SDS011;42600;54.408;13.016;2023-07-29T04:34:52;5.38;;;1.95;;
419;SDS011;42600;54.408;13.016;2023-07-29T04:37:18;2.73;;;1.80;;
419;SDS011;42600;54.408;13.016;2023-07-29T04:39:45;2.92;;;1.67;;
419;SDS011;42600;54.408;13.016;2023-07-29T04:42:12;5.60;;;2.53;;
419;SDS011;42600;54.408;13.016;2023-07-29T04:44:38;5.77;;;2.30;;
419;SDS011;42600;54.408;13.016;2023-07-29T04:47:08;4.13;;;2.20;;
419;SDS011;42600;54.408;13.016;2023-07-29T04:49:34;5.10;;;1.60;;
419;SDS011;42600;54.408;13.016;2023-07-29T04:52:01;4.53;;;2.53;;
419;SDS011;42600;54.408;13.016;2023-07-29T04:54:28;4.40;;;2.30;;
419;SDS011;42600;54.408;13.016;2023-07-29T04:56:54;2.93;;;1.73;;
419;SDS011;42600;54.408;13.016;2023-07-29T04:59:21;9.43;;;2.83;;
419;SDS011;42600;54.408;13.016;2023-07-29T05:01:47;7.00;;;2.63;;
419;SDS011;42600;54.408;13.016;2023-07-29T05:04:15;5.83;;;2.33;;
419;SDS011;42600;54.408;13.016;2023-07-29T05:06:42;5.00;;;2.60;;
419;SDS011;42600;54.408;13.016;2023-07-29T05:09:14;4.43;;;2.30;;
419;SDS011;42600;54.408;13.016;2023-07-29T05:11:41;4.37;;;2.20;;
419;SDS011;42600;54.408;13.016;2023-07-29T05:14:10;6.07;;;2.72;;
419;SDS011;42600;54.408;13.016;2023-07-29T05:16:36;4.77;;;2.20;;
419;SDS011;42600;54.408;13.016;2023-07-29T05:19:03;5.53;;;2.45;;
419;SDS011;42600;54.408;13.016;2023-07-29T05:21:31;5.10;;;2.07;;
419;SDS011;42600;54.408;13.016;2023-07-29T05:23:57;7.83;;;3.07;;
419;SDS011;42600;54.408;13.016;2023-07-29T05:26:24;3.80;;;1.88;;
419;SDS011;42600;54.408;13.016;2023-07-29T05:28:50;4.47;;;2.43;;
419;SDS011;42600;54.408;13.016;2023-07-29T05:31:17;7.53;;;1.53;;
419;SDS011;42600;54.408;13.016;2023-07-29T05:33:44;3.50;;;2.17;;
419;SDS011;42600;54.408;13.016;2023-07-29T05:36:10;2.60;;;1.60;;
419;SDS011;42600;54.408;13.016;2023-07-29T05:38:38;3.33;;;1.50;;
419;SDS011;42600;54.408;13.016;2023-07-29T05:41:05;4.70;;;2.03;;
419;SDS011;42600;54.408;13.016;2023-07-29T05:43:31;3.83;;;2.50;;
419;SDS011;42600;54.408;13.016;2023-07-29T05:45:58;6.83;;;2.20;;
419;SDS011;42600;54.408;13.016;2023-07-29T05:48:24;5.97;;;2.40;;
419;SDS011;42600;54.408;13.016;2023-07-29T05:50:51;2.60;;;1.53;;
419;SDS011;42600;54.408;13.016;2023-07-29T05:53:17;3.60;;;1.43;;
419;SDS011;42600;54.408;13.016;2023-07-29T05:55:45;3.40;;;1.77;;
419;SDS011;42600;54.408;13.016;2023-07-29T05:58:12;3.90;;;1.60;;
419;SDS011;42600;54.408;13.016;2023-07-29T06:00:38;3.00;;;2.00;;
419;SDS011;42600;54.408;13.016;2023-07-29T06:03:05;2.15;;;1.35;;
419;SDS011;42600;54.408;13.016;2023-07-29T06:05:31;1.60;;;1.10;;
419;SDS011;42600;54.408;13.016;2023-07-29T06:07:58;4.67;;;2.20;;
419;SDS011;42600;54.408;13.016;2023-07-29T06:10:24;4.47;;;2.40;;
419;SDS011;42600;54.408;13.016;2023-07-29T06:12:52;3.23;;;1.70;;
419;SDS011;42600;54.408;13.016;2023-07-29T06:15:19;2.63;;;1.73;;
419;SDS011;42600;54.408;13.016;2023-07-29T06:17:47;2.97;;;1.90;;
419;SDS011;42600;54.408;13.016;2023-07-29T06:20:14;6.83;;;2.10;;
419;SDS011;42600;54.408;13.016;2023-07-29T06:22:41;6.90;;;2.30;;
419;SDS011;42600;54.408;13.016;2023-07-29T06:25:08;3.23;;;1.70;;
419;SDS011;42600;54.408;13.016;2023-07-29T06:27:34;4.13;;;1.55;;
419;SDS011;42600;54.408;13.016;2023-07-29T06:30:02;4.30;;;1.63;;
419;SDS011;42600;54.408;13.016;2023-07-29T06:32:29;2.87;;;1.80;;
419;SDS011;42600;54.408;13.016;2023-07-29T06:34:56;3.17;;;2.23;;
419;SDS011;42600;54.408;13.016;2023-07-29T06:37:22;4.60;;;2.73;;
419;SDS011;42600;54.408;13.016;2023-07-29T06:39:49;4.30;;;1.80;;
419;SDS011;42600;54.408;13.016;2023-07-29T06:42:15;4.20;;;2.03;;
419;SDS011;42600;54.408;13.016;2023-07-29T06:44:42;2.90;;;1.23;;
419;SDS011;42600;54.408;13.016;2023-07-29T06:47:12;2.80;;;1.67;;
419;SDS011;42600;54.408;13.016;2023-07-29T06:49:38;4.90;;;1.70;;
419;SDS011;42600;54.408;13.016;2023-07-29T06:52:05;5.60;;;2.60;;
419;SDS011;42600;54.408;13.016;2023-07-29T06:54:32;3.80;;;1.83;;
419;SDS011;42600;54.408;13.016;2023-07-29T06:56:58;2.70;;;1.80;;
419;SDS011;42600;54.408;13.016;2023-07-29T06:59:25;2.38;;;1.67;;
419;SDS011;42600;54.408;13.016;2023-07-29T07:01:51;2.67;;;1.35;;
419;SDS011;42600;54.408;13.016;2023-07-29T07:04:19;6.97;;;2.33;;
419;SDS011;42600;54.408;13.016;2023-07-29T07:06:46;4.50;;;2.58;;
419;SDS011;42600;54.408;13.016;2023-07-29T07:09:12;4.97;;;2.30;;
419;SDS011;42600;54.408;13.016;2023-07-29T07:11:39;6.40;;;2.10;;
419;SDS011;42600;54.408;13.016;2023-07-29T07:14:05;1.97;;;1.40;;
419;SDS011;42600;54.408;13.016;2023-07-29T07:16:32;4.30;;;2.07;;
419;SDS011;42600;54.408;13.016;2023-07-29T07:19:01;5.23;;;1.93;;
419;SDS011;42600;54.408;13.016;2023-07-29T07:21:29;5.63;;;2.10;;
419;SDS011;42600;54.408;13.016;2023-07-29T07:23:57;4.37;;;2.13;;
419;SDS011;42600;54.408;13.016;2023-07-29T07:26:24;4.30;;;2.10;;
419;SDS011;42600;54.408;13.016;2023-07-29T07:28:50;3.07;;;1.37;;
419;SDS011;42600;54.408;13.016;2023-07-29T07:31:17;4.60;;;1.92;;
419;SDS011;42600;54.408;13.016;2023-07-29T07:33:44;3.40;;;1.80;;
419;SDS011;42600;54.408;13.016;2023-07-29T07:36:11;5.03;;;2.93;;
419;SDS011;42600;54.408;13.016;2023-07-29T07:38:38;3.40;;;1.93;;
419;SDS011;42600;54.408;13.016;2023-07-29T07:41:05;4.00;;;1.70;;
419;SDS011;42600;54.408;13.016;2023-07-29T07:43:32;2.43;;;1.20;;
419;SDS011;42600;54.408;13.016;2023-07-29T07:45:58;8.13;;;2.30;;
419;SDS011;42600;54.408;13.016;2023-07-29T07:48:27;4.87;;;1.97;;
419;SDS011;42600;54.408;13.016;2023-07-29T07:50:54;4.03;;;1.40;;
419;SDS011;42600;54.408;13.016;2023-07-29T07:53:21;3.93;;;1.83;;
419;SDS011;42600;54.408;13.016;2023-07-29T07:55:49;4.40;;;2.30;;
419;SDS011;42600;54.408;13.016;2023-07-29T07:58:15;3.53;;;1.60;;
419;SDS011;42600;54.408;13.016;2023-07-29T08:00:42;4.40;;;1.87;;
419;SDS011;42600;54.408;13.016;2023-07-29T08:03:08;3.42;;;2.20;;
419;SDS011;42600;54.408;13.016;2023-07-29T08:05:35;3.20;;;1.57;;
419;SDS011;42600;54.408;13.016;2023-07-29T08:08:02;2.83;;;1.33;;
419;SDS011;42600;54.408;13.016;2023-07-29T08:10:28;10.25;;;2.00;;
419;SDS011;42600;54.408;13.016;2023-07-29T08:12:56;2.93;;;1.60;;
419;SDS011;42600;54.408;13.016;2023-07-29T08:15:23;2.53;;;1.60;;
419;SDS011;42600;54.408;13.016;2023-07-29T08:17:49;3.92;;;1.42;;
419;SDS011;42600;54.408;13.016;2023-07-29T08:20:16;3.37;;;1.93;;
419;SDS011;42600;54.408;13.016;2023-07-29T08:22:42;6.00;;;2.43;;
419;SDS011;42600;54.408;13.016;2023-07-29T08:25:09;5.10;;;1.60;;
419;SDS011;42600;54.408;13.016;2023-07-29T08:27:36;2.50;;;1.20;;
419;SDS011;42600;54.408;13.016;2023-07-29T08:30:04;3.10;;;1.90;;
419;SDS011;42600;54.408;13.016;2023-07-29T08:32:32;8.82;;;2.53;;
419;SDS011;42600;54.408;13.016;2023-07-29T08:34:58;2.47;;;1.57;;
419;SDS011;42600;54.408;13.016;2023-07-29T08:37:25;5.68;;;2.35;;
419;SDS011;42600;54.408;13.016;2023-07-29T08:39:52;5.63;;;2.47;;
419;SDS011;42600;54.408;13.016;2023-07-29T08:42:19;3.57;;;1.70;;
419;SDS011;42600;54.408;13.016;2023-07-29T08:44:49;2.83;;;1.52;;
419;SDS011;42600;54.408;13.016;2023-07-29T08:47:18;4.07;;;2.10;;
419;SDS011;42600;54.408;13.016;2023-07-29T08:49:45;3.07;;;1.40;;
419;SDS011;42600;54.408;13.016;2023-07-29T08:52:13;4.20;;;1.77;;
419;SDS011;42600;54.408;13.016;2023-07-29T08:54:40;3.17;;;2.10;;
419;SDS011;42600;54.408;13.016;2023-07-29T08:57:07;2.70;;;1.87;;
419;SDS011;42600;54.408;13.016;2023-07-29T08:59:34;3.67;;;1.90;;
419;SDS011;42600;54.408;13.016;2023-07-29T09:02:01;2.63;;;1.67;;
419;SDS011;42600;54.408;13.016;2023-07-29T09:04:28;4.47;;;2.17;;
419;SDS011;42600;54.408;13.016;2023-07-29T09:06:55;3.93;;;1.83;;
419;SDS011;42600;54.408;13.016;2023-07-29T09:09:24;2.30;;;1.70;;
419;SDS011;42600;54.408;13.016;2023-07-29T09:11:51;1.55;;;1.15;;
419;SDS011;42600;54.408;13.016;2023-07-29T09:14:18;4.33;;;1.90;;
419;SDS011;42600;54.408;13.016;2023-07-29T09:16:45;3.35;;;1.20;;
419;SDS011;42600;54.408;13.016;2023-07-29T09:19:12;4.23;;;2.07;;
419;SDS011;42600;54.408;13.016;2023-07-29T09:21:40;3.67;;;2.27;;
419;SDS011;42600;54.408;13.016;2023-07-29T09:24:07;2.78;;;1.63;;
419;SDS011;42600;54.408;13.016;2023-07-29T09:26:35;6.40;;;1.87;;
419;SDS011;42600;54.408;13.016;2023-07-29T09:29:02;5.70;;;2.00;;
419;SDS011;42600;54.408;13.016;2023-07-29T09:31:29;5.20;;;2.20;;
419;SDS011;42600;54.408;13.016;2023-07-29T09:33:56;2.70;;;1.50;;
419;SDS011;42600;54.408;13.016;2023-07-29T09:36:23;16.20;;;2.80;;
419;SDS011;42600;54.408;13.016;2023-07-29T09:38:53;3.67;;;1.43;;
419;SDS011;42600;54.408;13.016;2023-07-29T09:41:21;5.87;;;2.73;;
419;SDS011;42600;54.408;13.016;2023-07-29T09:43:51;6.82;;;2.83;;
419;SDS011;42600;54.408;13.016;2023-07-29T09:46:22;4.00;;;1.90;;
419;SDS011;42600;54.408;13.016;2023-07-29T09:48:49;4.50;;;2.43;;
419;SDS011;42600;54.408;13.016;2023-07-29T09:51:20;2.97;;;1.90;;
419;SDS011;42600;54.408;13.016;2023-07-29T09:53:47;4.00;;;2.80;;
419;SDS011;42600;54.408;13.016;2023-07-29T09:56:17;6.10;;;1.97;;
419;SDS011;42600;54.408;13.016;2023-07-29T09:58:44;4.70;;;2.30;;
419;SDS011;42600;54.408;13.016;2023-07-29T10:01:11;5.53;;;2.05;;
419;SDS011;42600;54.408;13.016;2023-07-29T10:03:38;8.57;;;2.70;;
419;SDS011;42600;54.408;13.016;2023-07-29T10:06:06;6.57;;;2.50;;
419;SDS011;42600;54.408;13.016;2023-07-29T10:08:34;3.00;;;2.10;;
419;SDS011;42600;54.408;13.016;2023-07-29T10:11:03;3.47;;;2.03;;
419;SDS011;42600;54.408;13.016;2023-07-29T10:13:32;4.43;;;2.28;;
419;SDS011;42600;54.408;13.016;2023-07-29T10:15:59;4.80;;;2.47;;
419;SDS011;42600;54.408;13.016;2023-07-29T10:18:27;9.57;;;2.20;;
419;SDS011;42600;54.408;13.016;2023-07-29T10:20:56;2.70;;;1.70;;
419;SDS011;42600;54.408;13.016;2023-07-29T10:23:24;3.60;;;2.20;;
419;SDS011;42600;54.408;13.016;2023-07-29T10:25:54;4.00;;;2.27;;
419;SDS011;42600;54.408;13.016;2023-07-29T10:28:25;5.87;;;2.87;;
419;SDS011;42600;54.408;13.016;2023-07-29T10:30:55;3.90;;;2.20;;
419;SDS011;42600;54.408;13.016;2023-07-29T10:33:22;5.00;;;2.37;;
419;SDS011;42600;54.408;13.016;2023-07-29T10:35:49;3.93;;;2.00;;
419;SDS011;42600;54.408;13.016;2023-07-29T10:38:16;6.90;;;2.90;;
419;SDS011;42600;54.408;13.016;2023-07-29T10:40:43;2.80;;;1.57;;
419;SDS011;42600;54.408;13.016;2023-07-29T10:43:12;2.60;;;1.70;;
419;SDS011;42600;54.408;13.016;2023-07-29T10:45:44;4.77;;;2.77;;
419;SDS011;42600;54.408;13.016;2023-07-29T10:48:12;6.30;;;2.07;;
419;SDS011;42600;54.408;13.016;2023-07-29T10:50:39;3.07;;;1.80;;
419;SDS011;42600;54.408;13.016;2023-07-29T10:53:06;8.43;;;1.97;;
419;SDS011;42600;54.408;13.016;2023-07-29T10:55:33;6.10;;;1.83;;
419;SDS011;42600;54.408;13.016;2023-07-29T10:58:09;3.53;;;2.07;;
419;SDS011;42600;54.408;13.016;2023-07-29T11:00:38;3.23;;;1.77;;
419;SDS011;42600;54.408;13.016;2023-07-29T11:03:07;3.63;;;2.53;;
419;SDS011;42600;54.408;13.016;2023-07-29T11:05:45;4.60;;;2.30;;
419;SDS011;42600;54.408;13.016;2023-07-29T11:08:25;3.00;;;1.40;;
419;SDS011;42600;54.408;13.016;2023-07-29T11:11:04;3.03;;;1.65;;
419;SDS011;42600;54.408;13.016;2023-07-29T11:13:32;2.93;;;1.80;;
419;SDS011;42600;54.408;13.016;2023-07-29T11:16:00;4.60;;;2.60;;
419;SDS011;42600;54.408;13.016;2023-07-29T11:18:27;3.20;;;1.90;;
419;SDS011;42600;54.408;13.016;2023-07-29T11:20:56;5.80;;;2.67;;
419;SDS011;42600;54.408;13.016;2023-07-29T11:23:27;4.07;;;1.97;;
419;SDS011;42600;54.408;13.016;2023-07-29T11:25:55;4.60;;;2.10;;
419;SDS011;42600;54.408;13.016;2023-07-29T11:28:23;4.83;;;2.40;;
419;SDS011;42600;54.408;13.016;2023-07-29T11:30:49;3.60;;;2.20;;
419;SDS011;42600;54.408;13.016;2023-07-29T11:33:17;4.67;;;2.37;;
419;SDS011;42600;54.408;13.016;2023-07-29T11:35:45;5.83;;;3.17;;
419;SDS011;42600;54.408;13.016;2023-07-29T11:38:15;5.30;;;2.03;;
419;SDS011;42600;54.408;13.016;2023-07-29T11:40:43;4.70;;;2.00;;
419;SDS011;42600;54.408;13.016;2023-07-29T11:43:19;3.47;;;1.77;;
419;SDS011;42600;54.408;13.016;2023-07-29T11:45:45;2.90;;;2.10;;
419;SDS011;42600;54.408;13.016;2023-07-29T11:48:12;2.80;;;1.37;;
419;SDS011;42600;54.408;13.016;2023-07-29T11:50:38;6.00;;;4.27;;
419;SDS011;42600;54.408;13.016;2023-07-29T11:53:06;10.13;;;2.70;;
419;SDS011;42600;54.408;13.016;2023-07-29T11:55:33;8.10;;;2.70;;
419;SDS011;42600;54.408;13.016;2023-07-29T11:58:00;14.03;;;3.17;;
419;SDS011;42600;54.408;13.016;2023-07-29T12:00:27;8.70;;;3.37;;
419;SDS011;42600;54.408;13.016;2023-07-29T12:02:54;3.37;;;2.33;;
419;SDS011;42600;54.408;13.016;2023-07-29T12:05:22;3.87;;;1.77;;
419;SDS011;42600;54.408;13.016;2023-07-29T12:07:50;8.47;;;3.27;;
419;SDS011;42600;54.408;13.016;2023-07-29T12:10:17;10.00;;;4.77;;
419;SDS011;42600;54.408;13.016;2023-07-29T12:12:45;10.80;;;3.28;;
419;SDS011;42600;54.408;13.016;2023-07-29T12:15:12;9.10;;;4.17;;
419;SDS011;42600;54.408;13.016;2023-07-29T12:17:39;10.80;;;4.23;;
419;SDS011;42600;54.408;13.016;2023-07-29T12:20:08;15.67;;;4.30;;
419;SDS011;42600;54.408;13.016;2023-07-29T12:22:35;8.53;;;4.83;;
419;SDS011;42600;54.408;13.016;2023-07-29T12:25:02;5.77;;;3.40;;
419;SDS011;42600;54.408;13.016;2023-07-29T12:27:29;10.67;;;4.23;;
419;SDS011;42600;54.408;13.016;2023-07-29T12:29:57;13.93;;;3.90;;
419;SDS011;42600;54.408;13.016;2023-07-29T12:32:28;9.00;;;4.70;;
419;SDS011;42600;54.408;13.016;2023-07-29T12:34:55;8.03;;;4.30;;
419;SDS011;42600;54.408;13.016;2023-07-29T12:37:30;11.20;;;4.30;;
419;SDS011;42600;54.408;13.016;2023-07-29T12:39:57;9.33;;;3.73;;
419;SDS011;42600;54.408;13.016;2023-07-29T12:42:23;11.03;;;4.03;;
419;SDS011;42600;54.408;13.016;2023-07-29T12:44:50;12.80;;;3.47;;
419;SDS011;42600;54.408;13.016;2023-07-29T12:47:18;16.90;;;5.13;;
419;SDS011;42600;54.408;13.016;2023-07-29T12:49:44;7.68;;;4.07;;
419;SDS011;42600;54.408;13.016;2023-07-29T12:52:11;10.93;;;3.42;;
419;SDS011;42600;54.408;13.016;2023-07-29T12:54:37;7.33;;;3.50;;
419;SDS011;42600;54.408;13.016;2023-07-29T12:57:05;12.27;;;4.85;;
419;SDS011;42600;54.408;13.016;2023-07-29T12:59:32;13.10;;;5.00;;
419;SDS011;42600;54.408;13.016;2023-07-29T13:01:58;13.50;;;5.67;;
419;SDS011;42600;54.408;13.016;2023-07-29T13:04:26;17.77;;;6.03;;
419;SDS011;42600;54.408;13.016;2023-07-29T13:06:53;14.00;;;6.40;;
419;SDS011;42600;54.408;13.016;2023-07-29T13:09:21;8.37;;;4.50;;
419;SDS011;42600;54.408;13.016;2023-07-29T13:11:47;10.07;;;4.87;;
419;SDS011;42600;54.408;13.016;2023-07-29T13:14:14;8.90;;;4.00;;
419;SDS011;42600;54.408;13.016;2023-07-29T13:16:41;12.60;;;5.33;;
419;SDS011;42600;54.408;13.016;2023-07-29T13:19:07;9.10;;;4.82;;
419;SDS011;42600;54.408;13.016;2023-07-29T13:21:35;6.13;;;3.38;;
419;SDS011;42600;54.408;13.016;2023-07-29T13:24:02;7.33;;;3.57;;
419;SDS011;42600;54.408;13.016;2023-07-29T13:26:28;6.05;;;2.85;;
419;SDS011;42600;54.408;13.016;2023-07-29T13:28:55;3.53;;;1.70;;
419;SDS011;42600;54.408;13.016;2023-07-29T13:31:22;2.65;;;1.42;;
419;SDS011;42600;54.408;13.016;2023-07-29T13:33:48;6.17;;;1.70;;
419;SDS011;42600;54.408;13.016;2023-07-29T13:36:15;2.90;;;1.73;;
419;SDS011;42600;54.408;13.016;2023-07-29T13:38:43;7.70;;;1.70;;
419;SDS011;42600;54.408;13.016;2023-07-29T13:41:09;7.43;;;2.33;;
419;SDS011;42600;54.408;13.016;2023-07-29T13:43:36;5.13;;;2.27;;
419;SDS011;42600;54.408;13.016;2023-07-29T13:46:02;3.40;;;1.57;;
419;SDS011;42600;54.408;13.016;2023-07-29T13:48:29;3.13;;;1.80;;
419;SDS011;42600;54.408;13.016;2023-07-29T13:50:55;6.38;;;1.30;;
419;SDS011;42600;54.408;13.016;2023-07-29T13:53:22;4.53;;;1.83;;
419;SDS011;42600;54.408;13.016;2023-07-29T13:55:50;2.60;;;1.55;;
419;SDS011;42600;54.408;13.016;2023-07-29T13:58:16;3.60;;;1.63;;
419;SDS011;42600;54.408;13.016;2023-07-29T14:00:43;3.23;;;1.63;;
419;SDS011;42600;54.408;13.016;2023-07-29T14:03:10;2.38;;;1.25;;
419;SDS011;42600;54.408;13.016;2023-07-29T14:05:36;6.78;;;2.38;;
419;SDS011;42600;54.408;13.016;2023-07-29T14:08:03;2.87;;;1.37;;
419;SDS011;42600;54.408;13.016;2023-07-29T14:10:30;2.67;;;1.80;;
419;SDS011;42600;54.408;13.016;2023-07-29T14:12:57;4.00;;;1.53;;
419;SDS011;42600;54.408;13.016;2023-07-29T14:15:24;5.30;;;1.43;;
419;SDS011;42600;54.408;13.016;2023-07-29T14:17:50;2.77;;;1.40;;
419;SDS011;42600;54.408;13.016;2023-07-29T14:20:17;3.05;;;1.52;;
419;SDS011;42600;54.408;13.016;2023-07-29T14:22:44;6.10;;;1.80;;
419;SDS011;42600;54.408;13.016;2023-07-29T14:25:10;3.05;;;1.23;;
419;SDS011;42600;54.408;13.016;2023-07-29T14:27:37;2.63;;;1.37;;
419;SDS011;42600;54.408;13.016;2023-07-29T14:30:06;4.07;;;1.50;;
419;SDS011;42600;54.408;13.016;2023-07-29T14:32:33;2.90;;;1.90;;
419;SDS011;42600;54.408;13.016;2023-07-29T14:34:59;4.13;;;2.20;;
419;SDS011;42600;54.408;13.016;2023-07-29T14:37:28;4.40;;;2.03;;
419;SDS011;42600;54.408;13.016;2023-07-29T14:39:55;3.67;;;1.50;;
419;SDS011;42600;54.408;13.016;2023-07-29T14:42:21;2.10;;;1.15;;
419;SDS011;42600;54.408;13.016;2023-07-29T14:44:48;7.37;;;1.60;;
419;SDS011;42600;54.408;13.016;2023-07-29T14:47:16;2.00;;;1.17;;
419;SDS011;42600;54.408;13.016;2023-07-29T14:49:43;2.90;;;1.50;;
419;SDS011;42600;54.408;13.016;2023-07-29T14:52:10;4.50;;;1.57;;
419;SDS011;42600;54.408;13.016;2023-07-29T14:54:37;3.50;;;1.83;;
419;SDS011;42600;54.408;13.016;2023-07-29T14:57:04;3.20;;;1.50;;
419;SDS011;42600;54.408;13.016;2023-07-29T14:59:32;4.00;;;1.93;;
419;SDS011;42600;54.408;13.016;2023-07-29T15:01:58;7.70;;;2.13;;